createdAt,value
2023-01-09T00:02:27.402Z,14.20
2023-01-09T00:04:57.303Z,14.30
2023-01-09T00:07:25.549Z,14.30
2023-01-09T00:09:53.560Z,14.30
2023-01-09T00:12:21.767Z,14.40
2023-01-09T00:14:50.090Z,14.40
2023-01-09T00:17:18.389Z,14.40
2023-01-09T00:19:46.510Z,14.40
2023-01-09T00:22:16.348Z,14.40
2023-01-09T00:24:44.560Z,14.40
2023-01-09T00:27:14.689Z,14.40
2023-01-09T00:29:45.129Z,14.40
2023-01-09T00:32:13.440Z,14.40
2023-01-09T00:34:43.650Z,14.40
2023-01-09T00:37:14.762Z,14.40
2023-01-09T00:39:44.612Z,14.30
2023-01-09T00:42:16.317Z,14.30
2023-01-09T00:44:47.156Z,14.40
2023-01-09T00:47:18.892Z,14.30
2023-01-09T00:49:48.254Z,14.30
2023-01-09T00:52:17.072Z,14.30
2023-01-09T00:54:47.401Z,14.40
2023-01-09T00:57:15.851Z,14.50
2023-01-09T00:59:44.365Z,14.50
2023-01-09T01:02:12.586Z,14.50
2023-01-09T01:04:59.532Z,14.60
2023-01-09T01:07:39.393Z,14.70
2023-01-09T01:10:11.529Z,14.80
2023-01-09T01:12:40.215Z,14.80
2023-01-09T01:15:09.561Z,14.80
2023-01-09T01:17:38.999Z,14.80
2023-01-09T01:20:10.975Z,14.80
2023-01-09T01:22:39.186Z,14.80
2023-01-09T01:25:09.661Z,14.80
2023-01-09T01:27:38.099Z,14.80
2023-01-09T01:30:07.800Z,14.90
2023-01-09T01:32:35.905Z,15.00
2023-01-09T01:35:04.281Z,15.00
2023-01-09T01:37:33.835Z,15.00
2023-01-09T01:40:01.965Z,15.10
2023-01-09T01:42:31.502Z,15.10
2023-01-09T01:45:02.826Z,15.10
2023-01-09T01:47:38.311Z,14.90
2023-01-09T01:50:11.827Z,14.80
2023-01-09T01:52:40.213Z,14.70
2023-01-09T01:55:10.418Z,14.60
2023-01-09T01:57:43.218Z,14.60
2023-01-09T02:00:12.769Z,14.50
2023-01-09T02:02:40.766Z,14.50
2023-01-09T02:05:09.408Z,14.50
2023-01-09T02:07:37.505Z,14.50
2023-01-09T02:10:06.294Z,14.50
2023-01-09T02:12:34.201Z,14.50
2023-01-09T02:15:08.219Z,14.50
2023-01-09T02:18:05.729Z,14.50
2023-01-09T02:20:52.758Z,14.50
2023-01-09T02:23:47.856Z,14.50
2023-01-09T02:26:44.079Z,14.50
2023-01-09T02:29:40.049Z,14.50
2023-01-09T02:32:19.865Z,14.50
2023-01-09T02:34:57.213Z,14.40
2023-01-09T02:37:32.018Z,14.40
2023-01-09T02:40:07.353Z,14.40
2023-01-09T02:42:37.412Z,14.40
2023-01-09T02:45:06.278Z,14.40
2023-01-09T02:47:41.656Z,14.40
2023-01-09T02:50:14.217Z,14.40
2023-01-09T02:53:08.795Z,14.50
2023-01-09T02:55:52.083Z,14.50
2023-01-09T02:58:34.103Z,14.50
2023-01-09T03:01:15.404Z,14.50
2023-01-09T03:03:50.394Z,14.50
2023-01-09T03:06:24.924Z,14.50
2023-01-09T03:08:57.678Z,14.50
2023-01-09T03:11:29.353Z,14.50
2023-01-09T03:14:03.884Z,14.50
2023-01-09T03:16:36.099Z,14.50
2023-01-09T03:19:08.688Z,14.50
2023-01-09T03:21:37.915Z,14.50
2023-01-09T03:24:06.433Z,14.50
2023-01-09T03:26:34.774Z,14.50
2023-01-09T03:29:02.694Z,14.50
2023-01-09T03:31:30.922Z,14.50
2023-01-09T03:33:59.000Z,14.50
2023-01-09T03:36:29.113Z,14.50
2023-01-09T03:38:57.255Z,14.50
2023-01-09T03:41:25.250Z,14.40
2023-01-09T03:43:53.307Z,14.40
2023-01-09T03:46:21.284Z,14.40
2023-01-09T03:48:49.497Z,14.40
2023-01-09T03:51:17.505Z,14.40
2023-01-09T03:53:47.175Z,14.30
2023-01-09T03:56:15.675Z,14.30
2023-01-09T03:58:43.705Z,14.30
2023-01-09T04:01:14.647Z,14.30
2023-01-09T04:03:42.860Z,14.20
2023-01-09T04:06:10.801Z,14.20
2023-01-09T04:08:38.956Z,14.20
2023-01-09T04:11:08.884Z,14.20
2023-01-09T04:13:36.955Z,14.20
2023-01-09T04:16:05.597Z,14.20
2023-01-09T04:18:33.665Z,14.20
2023-01-09T04:21:01.766Z,14.20
2023-01-09T04:23:29.734Z,14.20
2023-01-09T04:25:57.785Z,14.20
2023-01-09T04:28:27.453Z,14.20
2023-01-09T04:30:55.502Z,14.20
2023-01-09T04:33:23.455Z,14.20
2023-01-09T04:35:51.551Z,14.20
2023-01-09T04:38:20.225Z,14.20
2023-01-09T04:40:49.112Z,14.20
2023-01-09T04:43:17.080Z,14.20
2023-01-09T04:45:46.778Z,14.30
2023-01-09T04:48:15.109Z,14.20
2023-01-09T04:50:43.488Z,14.20
2023-01-09T04:53:11.614Z,14.30
2023-01-09T04:55:41.541Z,14.30
2023-01-09T04:58:09.727Z,14.30
2023-01-09T05:00:37.721Z,14.20
2023-01-09T05:03:07.220Z,14.20
2023-01-09T05:05:35.145Z,14.20
2023-01-09T05:08:03.175Z,14.20
2023-01-09T05:10:31.065Z,14.20
2023-01-09T05:12:59.155Z,14.20
2023-01-09T05:15:28.585Z,14.20
2023-01-09T05:17:56.668Z,14.20
2023-01-09T05:20:26.026Z,14.10
2023-01-09T05:22:54.077Z,14.10
2023-01-09T05:25:22.080Z,14.10
2023-01-09T05:27:50.077Z,14.10
2023-01-09T05:30:18.736Z,14.10
2023-01-09T05:32:46.765Z,14.10
2023-01-09T05:35:14.719Z,14.10
2023-01-09T05:37:44.176Z,14.10
2023-01-09T05:40:13.469Z,14.10
2023-01-09T05:42:42.695Z,14.10
2023-01-09T05:45:11.738Z,14.10
2023-01-09T05:47:39.947Z,14.10
2023-01-09T05:50:08.736Z,14.20
2023-01-09T05:52:36.669Z,14.20
2023-01-09T05:55:07.456Z,14.20
2023-01-09T05:57:35.617Z,14.20
2023-01-09T06:00:04.144Z,14.20
2023-01-09T06:02:34.777Z,14.20
2023-01-09T06:05:03.044Z,14.20
2023-01-09T06:07:31.046Z,14.20
2023-01-09T06:09:59.111Z,14.20
2023-01-09T06:12:28.579Z,14.10
2023-01-09T06:14:56.621Z,14.10
2023-01-09T06:17:24.645Z,14.10
2023-01-09T06:19:52.635Z,14.10
2023-01-09T06:22:20.679Z,14.10
2023-01-09T06:24:49.015Z,14.10
2023-01-09T06:27:17.013Z,14.10
2023-01-09T06:29:46.574Z,14.10
2023-01-09T06:32:14.773Z,14.10
2023-01-09T06:34:42.655Z,14.10
2023-01-09T06:37:10.702Z,14.10
2023-01-09T06:39:38.765Z,14.10
2023-01-09T06:42:07.032Z,14.10
2023-01-09T06:44:37.029Z,14.10
2023-01-09T06:47:06.620Z,14.10
2023-01-09T06:49:34.653Z,14.10
2023-01-09T06:52:05.834Z,14.10
2023-01-09T06:54:33.800Z,14.10
2023-01-09T06:57:01.860Z,14.10
2023-01-09T06:59:29.695Z,14.00
2023-01-09T07:01:57.765Z,14.00
2023-01-09T07:04:27.129Z,14.10
2023-01-09T07:06:55.152Z,14.10
2023-01-09T07:09:22.990Z,14.10
2023-01-09T07:11:50.897Z,14.10
2023-01-09T07:14:18.861Z,14.10
2023-01-09T07:16:46.905Z,14.10
2023-01-09T07:19:14.757Z,14.10
2023-01-09T07:21:44.119Z,14.10
2023-01-09T07:24:11.852Z,14.10
2023-01-09T07:26:40.159Z,14.10
2023-01-09T07:29:08.640Z,14.10
2023-01-09T07:31:36.575Z,14.00
2023-01-09T07:34:04.489Z,14.10
2023-01-09T07:36:32.510Z,14.00
2023-01-09T07:39:01.849Z,14.10
2023-01-09T07:41:29.820Z,14.10
2023-01-09T07:43:58.059Z,14.10
2023-01-09T07:46:26.104Z,14.20
2023-01-09T07:48:54.940Z,14.20
2023-01-09T07:51:22.731Z,14.20
2023-01-09T07:53:50.538Z,14.30
2023-01-09T07:56:19.884Z,14.30
2023-01-09T07:58:47.883Z,14.40
2023-01-09T08:01:16.119Z,14.40
2023-01-09T08:03:44.071Z,14.50
2023-01-09T08:06:12.030Z,14.60
2023-01-09T08:08:39.965Z,14.60
2023-01-09T08:11:07.838Z,14.60
2023-01-09T08:13:37.152Z,14.70
2023-01-09T08:16:05.803Z,14.70
2023-01-09T08:18:33.728Z,14.80
2023-01-09T08:21:01.508Z,14.80
2023-01-09T08:23:29.514Z,14.90
2023-01-09T08:25:57.361Z,14.90
2023-01-09T08:28:25.150Z,14.90
2023-01-09T08:30:54.434Z,14.90
2023-01-09T08:33:22.491Z,14.90
2023-01-09T08:35:50.356Z,14.90
2023-01-09T08:38:18.263Z,15.00
2023-01-09T08:40:47.884Z,15.00
2023-01-09T08:43:34.309Z,15.10
2023-01-09T08:46:22.170Z,15.10
2023-01-09T08:48:50.131Z,15.10
2023-01-09T08:51:17.989Z,15.10
2023-01-09T08:53:45.821Z,15.20
2023-01-09T08:56:13.680Z,15.20
2023-01-09T08:58:41.530Z,15.20
2023-01-09T09:01:11.110Z,15.20
2023-01-09T09:03:39.228Z,15.30
2023-01-09T09:06:07.621Z,15.30
2023-01-09T09:08:35.652Z,15.30
2023-01-09T09:11:03.531Z,15.40
2023-01-09T09:13:31.360Z,15.40
2023-01-09T09:15:59.175Z,15.50
2023-01-09T09:18:28.572Z,15.60
2023-01-09T09:20:56.469Z,15.60
2023-01-09T09:23:24.454Z,15.60
2023-01-09T09:25:52.262Z,15.60
2023-01-09T09:28:20.377Z,15.60
2023-01-09T09:30:48.123Z,15.70
2023-01-09T09:33:16.041Z,15.70
2023-01-09T09:35:45.654Z,15.80
2023-01-09T09:38:13.864Z,15.60
2023-01-09T09:40:54.377Z,15.50
2023-01-09T09:44:02.593Z,15.50
2023-01-09T09:46:40.725Z,15.50
2023-01-09T09:49:15.020Z,15.50
2023-01-09T09:51:57.515Z,15.60
2023-01-09T09:54:33.210Z,15.60
2023-01-09T09:57:04.532Z,15.70
2023-01-09T09:59:35.152Z,15.80
2023-01-09T10:02:12.288Z,15.90
2023-01-09T10:04:46.258Z,15.80
2023-01-09T10:07:22.248Z,15.80
2023-01-09T10:09:54.494Z,15.70
2023-01-09T10:12:28.967Z,15.70
2023-01-09T10:14:59.133Z,15.80
2023-01-09T10:17:52.036Z,15.90
2023-01-09T10:20:49.653Z,15.90
2023-01-09T10:23:24.662Z,15.90
2023-01-09T10:26:00.297Z,15.80
2023-01-09T10:28:47.492Z,15.70
2023-01-09T10:31:28.907Z,15.70
2023-01-09T10:34:08.327Z,15.60
2023-01-09T10:36:55.167Z,15.50
2023-01-09T10:39:27.156Z,15.70
2023-01-09T10:42:01.141Z,15.80
2023-01-09T10:44:36.494Z,15.80
2023-01-09T10:47:11.657Z,15.90
2023-01-09T10:49:40.934Z,16.00
2023-01-09T10:52:17.124Z,16.00
2023-01-09T10:54:55.423Z,16.10
2023-01-09T10:57:42.061Z,15.90
2023-01-09T11:00:18.100Z,15.70
2023-01-09T11:02:46.722Z,15.50
2023-01-09T11:05:18.930Z,15.30
2023-01-09T11:07:51.721Z,15.00
2023-01-09T11:10:22.906Z,15.00
2023-01-09T11:12:51.053Z,14.90
2023-01-09T11:15:31.847Z,14.80
2023-01-09T11:18:21.973Z,14.80
2023-01-09T11:20:50.079Z,14.80
2023-01-09T11:23:26.973Z,14.80
2023-01-09T11:25:58.241Z,14.90
2023-01-09T11:28:26.802Z,14.90
2023-01-09T11:30:57.943Z,15.00
2023-01-09T11:33:28.075Z,15.00
2023-01-09T11:36:03.191Z,14.90
2023-01-09T11:38:32.435Z,14.90
2023-01-09T11:41:04.549Z,14.90
2023-01-09T11:43:35.762Z,14.80
2023-01-09T11:46:06.733Z,14.80
2023-01-09T11:48:40.794Z,14.70
2023-01-09T11:51:20.322Z,14.70
2023-01-09T11:54:26.627Z,14.60
2023-01-09T11:56:56.603Z,14.60
2023-01-09T11:59:27.585Z,14.60
2023-01-09T12:02:21.545Z,14.60
2023-01-09T12:04:53.513Z,14.60
2023-01-09T12:07:50.343Z,14.50
2023-01-09T12:10:45.164Z,14.60
2023-01-09T12:13:30.477Z,14.50
2023-01-09T12:16:07.397Z,14.60
2023-01-09T12:18:50.430Z,14.50
2023-01-09T12:21:31.005Z,14.50
2023-01-09T12:24:31.861Z,14.60
2023-01-09T12:27:17.292Z,14.50
2023-01-09T12:30:15.584Z,14.50
2023-01-09T12:32:56.334Z,14.50
2023-01-09T12:35:33.997Z,14.60
2023-01-09T12:38:26.061Z,14.50
2023-01-09T12:41:25.958Z,14.40
2023-01-09T12:44:07.556Z,14.30
2023-01-09T12:46:48.108Z,14.30
2023-01-09T12:49:29.530Z,14.20
2023-01-09T12:52:04.359Z,14.10
2023-01-09T12:54:37.739Z,13.90
2023-01-09T12:57:13.698Z,13.80
2023-01-09T12:59:47.090Z,13.80
2023-01-09T13:02:25.615Z,13.80
2023-01-09T13:04:58.351Z,13.90
2023-01-09T13:07:30.979Z,13.90
2023-01-09T13:10:07.000Z,14.00
2023-01-09T13:12:39.374Z,14.20
2023-01-09T13:15:23.250Z,14.40
2023-01-09T13:17:56.355Z,14.40
2023-01-09T13:20:32.665Z,14.60
2023-01-09T13:23:02.115Z,14.80
2023-01-09T13:25:42.059Z,14.90
2023-01-09T13:28:16.930Z,14.80
2023-01-09T13:31:06.343Z,14.90
2023-01-09T13:33:38.080Z,15.00
2023-01-09T13:36:07.057Z,15.20
2023-01-09T13:38:38.410Z,15.20
2023-01-09T13:41:30.954Z,15.10
2023-01-09T13:44:01.584Z,15.00
2023-01-09T13:46:37.288Z,15.00
2023-01-09T13:49:08.522Z,14.90
2023-01-09T13:51:52.671Z,15.00
2023-01-09T13:54:55.450Z,15.00
2023-01-09T13:57:28.952Z,15.00
2023-01-09T14:00:00.124Z,15.00
2023-01-09T14:03:07.391Z,15.00
2023-01-09T14:06:06.179Z,15.00
2023-01-09T14:08:34.938Z,15.10
2023-01-09T14:11:04.924Z,15.00
2023-01-09T14:13:38.468Z,15.00
2023-01-09T14:16:12.160Z,14.90
2023-01-09T14:18:48.545Z,14.90
2023-01-09T14:21:19.603Z,14.80
2023-01-09T14:24:03.553Z,14.80
2023-01-09T14:26:45.581Z,14.80
2023-01-09T14:29:39.908Z,14.70
2023-01-09T14:32:53.806Z,14.70
2023-01-09T14:35:32.857Z,14.60
2023-01-09T14:38:22.241Z,14.60
2023-01-09T14:40:56.297Z,14.60
2023-01-09T14:43:41.837Z,14.60
2023-01-09T14:46:13.749Z,14.60
2023-01-09T14:48:55.911Z,14.60
2023-01-09T14:51:26.315Z,14.60
2023-01-09T14:53:56.442Z,14.60
2023-01-09T14:56:29.362Z,14.60
2023-01-09T14:59:12.085Z,14.50
2023-01-09T15:01:43.613Z,14.50
2023-01-09T15:04:26.445Z,14.50
2023-01-09T15:06:54.527Z,14.40
2023-01-09T15:09:27.190Z,14.40
2023-01-09T15:11:58.442Z,14.30
2023-01-09T15:14:31.551Z,14.30
2023-01-09T15:17:00.453Z,14.30
2023-01-09T15:19:29.591Z,14.20
2023-01-09T15:21:59.582Z,14.20
2023-01-09T15:24:30.765Z,14.10
2023-01-09T15:27:01.525Z,14.00
2023-01-09T15:29:30.141Z,14.00
2023-01-09T15:32:03.794Z,13.90
2023-01-09T15:34:33.220Z,13.90
2023-01-09T15:37:03.260Z,13.80
2023-01-09T15:39:36.996Z,13.80
2023-01-09T15:42:24.380Z,13.70
2023-01-09T15:44:54.010Z,13.70
2023-01-09T15:47:28.172Z,13.60
2023-01-09T15:49:57.161Z,13.50
2023-01-09T15:52:25.908Z,13.40
2023-01-09T15:54:55.207Z,13.40
2023-01-09T15:57:33.301Z,13.30
2023-01-09T16:00:31.041Z,13.30
2023-01-09T16:03:10.464Z,13.20
2023-01-09T16:05:43.051Z,13.10
2023-01-09T16:08:29.437Z,13.10
2023-01-09T16:11:02.737Z,13.00
2023-01-09T16:13:33.221Z,13.00
2023-01-09T16:16:03.070Z,12.90
2023-01-09T16:18:33.897Z,12.90
2023-01-09T16:21:20.081Z,13.00
2023-01-09T16:23:53.571Z,13.00
2023-01-09T16:26:25.496Z,13.10
2023-01-09T16:28:54.161Z,13.10
2023-01-09T16:31:25.725Z,13.00
2023-01-09T16:34:04.602Z,13.00
2023-01-09T16:36:35.286Z,12.90
2023-01-09T16:39:04.308Z,12.80
2023-01-09T16:41:52.153Z,12.70
2023-01-09T16:44:20.158Z,12.80
2023-01-09T16:46:48.074Z,12.90
2023-01-09T16:49:19.255Z,13.00
2023-01-09T16:51:47.735Z,13.00
2023-01-09T16:54:16.068Z,12.90
2023-01-09T16:56:48.720Z,12.90
2023-01-09T16:59:24.799Z,12.90
2023-01-09T17:01:54.598Z,12.80
2023-01-09T17:04:26.500Z,12.70
2023-01-09T17:06:54.424Z,12.60
2023-01-09T17:09:27.458Z,12.50
2023-01-09T17:11:56.991Z,12.50
2023-01-09T17:14:25.093Z,12.40
2023-01-09T17:16:53.052Z,12.40
2023-01-09T17:19:23.717Z,12.30
2023-01-09T17:21:51.642Z,12.30
2023-01-09T17:24:38.179Z,12.20
2023-01-09T17:27:28.878Z,12.10
2023-01-09T17:29:56.810Z,12.10
2023-01-09T17:32:24.818Z,12.10
2023-01-09T17:34:52.881Z,12.10
2023-01-09T17:37:21.266Z,12.10
2023-01-09T17:39:49.199Z,12.00
2023-01-09T17:42:18.374Z,11.90
2023-01-09T17:44:46.949Z,11.90
2023-01-09T17:47:19.372Z,11.80
2023-01-09T17:50:04.342Z,11.80
2023-01-09T17:52:33.287Z,11.80
2023-01-09T17:55:05.509Z,11.80
2023-01-09T17:57:35.307Z,11.80
2023-01-09T18:00:06.493Z,11.70
2023-01-09T18:02:34.471Z,11.70
2023-01-09T18:05:02.393Z,11.80
2023-01-09T18:07:30.379Z,11.80
2023-01-09T18:09:58.283Z,11.80
2023-01-09T18:12:26.074Z,11.70
2023-01-09T18:14:55.439Z,11.70
2023-01-09T18:17:23.476Z,11.70
2023-01-09T18:19:51.464Z,12.00
2023-01-09T18:22:19.454Z,12.00
2023-01-09T18:24:47.475Z,12.10
2023-01-09T18:27:15.555Z,12.10
2023-01-09T18:29:43.634Z,12.10
2023-01-09T18:32:13.185Z,12.00
2023-01-09T18:34:44.266Z,12.00
2023-01-09T18:37:12.431Z,11.90
2023-01-09T18:39:40.436Z,11.90
2023-01-09T18:42:14.869Z,11.80
2023-01-09T18:44:42.861Z,11.70
2023-01-09T18:47:12.767Z,11.70
2023-01-09T18:49:41.204Z,11.70
2023-01-09T18:52:08.982Z,11.70
2023-01-09T18:54:38.391Z,11.70
2023-01-09T18:57:06.263Z,11.60
2023-01-09T18:59:34.704Z,11.70
2023-01-09T19:02:02.687Z,11.80
2023-01-09T19:04:32.210Z,11.80
2023-01-09T19:07:00.159Z,11.80
2023-01-09T19:09:28.126Z,11.80
2023-01-09T19:11:55.880Z,11.80
2023-01-09T19:14:23.804Z,11.70
2023-01-09T19:16:51.632Z,11.70
2023-01-09T19:19:19.841Z,11.80
2023-01-09T19:21:49.139Z,11.70
2023-01-09T19:24:19.143Z,11.60
2023-01-09T19:26:49.027Z,11.50
2023-01-09T19:29:17.863Z,11.50
2023-01-09T19:31:46.973Z,11.50
2023-01-09T19:34:16.273Z,11.50
2023-01-09T19:36:44.898Z,11.50
2023-01-09T19:39:15.185Z,11.70
2023-01-09T19:41:43.385Z,11.80
2023-01-09T19:44:11.356Z,11.80
2023-01-09T19:46:40.017Z,11.70
2023-01-09T19:49:09.080Z,11.80
2023-01-09T19:51:37.054Z,11.80
2023-01-09T19:54:08.393Z,11.80
2023-01-09T19:56:40.990Z,11.90
2023-01-09T19:59:09.973Z,11.70
2023-01-09T20:01:57.727Z,11.70
2023-01-09T20:04:27.862Z,11.70
2023-01-09T20:06:56.380Z,11.80
2023-01-09T20:09:27.756Z,11.80
2023-01-09T20:11:58.110Z,11.80
2023-01-09T20:14:26.617Z,11.80
2023-01-09T20:17:00.129Z,11.80
2023-01-09T20:19:30.293Z,11.80
2023-01-09T20:21:58.407Z,11.60
2023-01-09T20:24:26.563Z,11.40
2023-01-09T20:26:54.801Z,11.30
2023-01-09T20:29:25.006Z,11.20
2023-01-09T20:31:53.157Z,11.20
2023-01-09T20:34:21.295Z,11.10
2023-01-09T20:36:49.450Z,11.10
2023-01-09T20:39:18.643Z,11.00
2023-01-09T20:41:56.355Z,11.00
2023-01-09T20:44:26.190Z,11.00
2023-01-09T20:46:54.145Z,10.80
2023-01-09T20:49:22.991Z,10.60
2023-01-09T20:51:52.233Z,10.60
2023-01-09T20:54:24.479Z,10.70
2023-01-09T20:56:52.568Z,10.70
2023-01-09T20:59:22.195Z,10.70
2023-01-09T21:01:52.241Z,10.70
2023-01-09T21:04:20.973Z,10.70
2023-01-09T21:06:50.382Z,10.70
2023-01-09T21:09:20.581Z,10.60
2023-01-09T21:11:48.546Z,10.70
2023-01-09T21:14:16.494Z,10.60
2023-01-09T21:16:53.741Z,10.60
2023-01-09T21:19:24.362Z,10.60
2023-01-09T21:21:53.540Z,10.60
2023-01-09T21:24:22.154Z,10.60
2023-01-09T21:26:50.099Z,10.60
2023-01-09T21:29:18.272Z,10.60
2023-01-09T21:31:47.514Z,10.60
2023-01-09T21:34:17.704Z,10.50
2023-01-09T21:36:49.018Z,10.20
2023-01-09T21:39:18.780Z,10.00
2023-01-09T21:42:05.681Z,10.00
2023-01-09T21:44:52.017Z,10.10
2023-01-09T21:47:20.313Z,10.10
2023-01-09T21:49:48.632Z,10.20
2023-01-09T21:52:22.264Z,10.20
2023-01-09T21:54:50.185Z,10.20
2023-01-09T21:57:18.469Z,10.30
2023-01-09T21:59:46.445Z,10.30
2023-01-09T22:02:16.394Z,10.30
2023-01-09T22:04:49.106Z,10.30
2023-01-09T22:07:18.829Z,10.30
2023-01-09T22:09:46.896Z,10.30
2023-01-09T22:12:15.330Z,10.20
2023-01-09T22:14:43.292Z,10.20
2023-01-09T22:17:11.226Z,10.20
2023-01-09T22:19:39.146Z,10.20
2023-01-09T22:22:08.752Z,10.00
2023-01-09T22:24:38.184Z,10.00
2023-01-09T22:27:06.295Z,9.90
2023-01-09T22:29:34.342Z,9.90
2023-01-09T22:32:02.552Z,9.80
2023-01-09T22:34:31.185Z,9.80
2023-01-09T22:36:59.718Z,9.80
2023-01-09T22:39:27.513Z,9.80
2023-01-09T22:41:56.701Z,9.70
2023-01-09T22:44:24.386Z,9.80
2023-01-09T22:46:52.364Z,9.80
2023-01-09T22:49:20.413Z,9.80
2023-01-09T22:51:48.570Z,9.80
2023-01-09T22:54:16.700Z,9.70
2023-01-09T22:56:44.603Z,9.70
2023-01-09T22:59:13.849Z,9.60
2023-01-09T23:01:41.682Z,9.50
2023-01-09T23:04:12.639Z,9.50
2023-01-09T23:06:40.723Z,9.50
2023-01-09T23:09:08.491Z,9.50
2023-01-09T23:11:55.382Z,9.50
2023-01-09T23:14:24.767Z,9.40
2023-01-09T23:16:52.714Z,9.40
2023-01-09T23:19:20.814Z,9.40
2023-01-09T23:21:49.326Z,9.40
2023-01-09T23:24:18.866Z,9.30
2023-01-09T23:26:47.973Z,9.20
2023-01-09T23:29:15.927Z,9.30
2023-01-09T23:31:45.632Z,9.00
2023-01-09T23:34:16.395Z,8.80
2023-01-09T23:36:44.785Z,9.00
2023-01-09T23:39:12.661Z,9.10
2023-01-09T23:41:59.300Z,9.10
2023-01-09T23:44:27.601Z,9.10
2023-01-09T23:46:56.938Z,9.10
2023-01-09T23:49:24.747Z,9.10
2023-01-09T23:51:52.415Z,9.10
2023-01-09T23:54:20.329Z,9.00
2023-01-09T23:56:48.039Z,9.00
2023-01-09T23:59:17.732Z,9.10
